Terminal Aerodrome Forecast
Issued by NWS Quad Cities IA IL

Home | Current Version | Previous Version | Text Only | Print | Product List | Glossary On
Versions: 1 2 3 4 5 6 7 8 9 10 11 12 13 14 15 16 17
000
FTUS43 KDVN 010520
TAFDBQ
TAF
KDBQ 010520Z 0106/0206 28005KT P6SM SKC
     FM010900 26005KT P6SM SCT070
     FM011400 27009KT P6SM FEW070
     FM012300 23007KT P6SM SCT070
     FM020300 22008KT P6SM BKN060=

USA.gov is the U.S. government's official web portal to all federal, state and local government web resources and services.